sensor_id;sensor_type;location;lat;lon;timestamp;P1;durP1;ratioP1;P2;durP2;ratioP2
5414;SDS011;2730;51.512;7.504;2023-12-22T00:02:23;7.53;;;1.10;;
5414;SDS011;2730;51.512;7.504;2023-12-22T00:04:52;7.35;;;0.80;;
5414;SDS011;2730;51.512;7.504;2023-12-22T00:07:20;4.10;;;1.00;;
5414;SDS011;2730;51.512;7.504;2023-12-22T00:09:47;1.75;;;1.65;;
5414;SDS011;2730;51.512;7.504;2023-12-22T00:12:14;0.80;;;0.80;;
5414;SDS011;2730;51.512;7.504;2023-12-22T00:14:41;5.15;;;1.10;;
5414;SDS011;2730;51.512;7.504;2023-12-22T00:17:08;6.85;;;1.20;;
5414;SDS011;2730;51.512;7.504;2023-12-22T00:19:35;3.00;;;0.90;;
5414;SDS011;2730;51.512;7.504;2023-12-22T00:22:03;1.70;;;1.08;;
5414;SDS011;2730;51.512;7.504;2023-12-22T00:24:30;1.33;;;1.10;;
5414;SDS011;2730;51.512;7.504;2023-12-22T00:26:58;3.83;;;1.17;;
5414;SDS011;2730;51.512;7.504;2023-12-22T00:29:25;8.70;;;1.48;;
5414;SDS011;2730;51.512;7.504;2023-12-22T00:31:53;3.38;;;1.00;;
5414;SDS011;2730;51.512;7.504;2023-12-22T00:34:21;4.97;;;1.27;;
5414;SDS011;2730;51.512;7.504;2023-12-22T00:36:49;11.82;;;1.67;;
5414;SDS011;2730;51.512;7.504;2023-12-22T00:39:17;2.00;;;0.88;;
5414;SDS011;2730;51.512;7.504;2023-12-22T00:41:44;3.80;;;0.70;;
5414;SDS011;2730;51.512;7.504;2023-12-22T00:44:12;5.43;;;1.10;;
5414;SDS011;2730;51.512;7.504;2023-12-22T00:46:40;7.35;;;1.10;;
5414;SDS011;2730;51.512;7.504;2023-12-22T00:49:07;6.13;;;1.00;;
5414;SDS011;2730;51.512;7.504;2023-12-22T00:51:35;1.70;;;0.98;;
5414;SDS011;2730;51.512;7.504;2023-12-22T00:54:02;4.50;;;1.25;;
5414;SDS011;2730;51.512;7.504;2023-12-22T00:56:30;5.10;;;1.10;;
5414;SDS011;2730;51.512;7.504;2023-12-22T00:58:57;7.80;;;1.10;;
5414;SDS011;2730;51.512;7.504;2023-12-22T01:01:23;1.40;;;0.88;;
5414;SDS011;2730;51.512;7.504;2023-12-22T01:03:50;6.28;;;1.65;;
5414;SDS011;2730;51.512;7.504;2023-12-22T01:06:18;8.75;;;2.58;;
5414;SDS011;2730;51.512;7.504;2023-12-22T01:08:45;1.55;;;0.98;;
5414;SDS011;2730;51.512;7.504;2023-12-22T01:11:15;8.98;;;1.27;;
5414;SDS011;2730;51.512;7.504;2023-12-22T01:13:43;3.10;;;1.17;;
5414;SDS011;2730;51.512;7.504;2023-12-22T01:16:10;2.15;;;1.13;;
5414;SDS011;2730;51.512;7.504;2023-12-22T01:18:36;4.03;;;1.05;;
5414;SDS011;2730;51.512;7.504;2023-12-22T01:21:07;6.97;;;1.70;;
5414;SDS011;2730;51.512;7.504;2023-12-22T01:23:34;4.45;;;0.95;;
5414;SDS011;2730;51.512;7.504;2023-12-22T01:26:01;5.57;;;1.80;;
5414;SDS011;2730;51.512;7.504;2023-12-22T01:28:28;3.60;;;1.38;;
5414;SDS011;2730;51.512;7.504;2023-12-22T01:30:56;4.10;;;1.58;;
5414;SDS011;2730;51.512;7.504;2023-12-22T01:33:23;8.77;;;1.55;;
5414;SDS011;2730;51.512;7.504;2023-12-22T01:35:50;7.22;;;1.15;;
5414;SDS011;2730;51.512;7.504;2023-12-22T01:38:17;6.85;;;1.10;;
5414;SDS011;2730;51.512;7.504;2023-12-22T01:40:45;1.70;;;1.60;;
5414;SDS011;2730;51.512;7.504;2023-12-22T01:43:12;7.13;;;1.40;;
5414;SDS011;2730;51.512;7.504;2023-12-22T01:45:39;5.68;;;1.50;;
5414;SDS011;2730;51.512;7.504;2023-12-22T01:48:12;5.32;;;1.40;;
5414;SDS011;2730;51.512;7.504;2023-12-22T01:50:39;7.88;;;1.08;;
5414;SDS011;2730;51.512;7.504;2023-12-22T01:53:06;1.38;;;1.27;;
5414;SDS011;2730;51.512;7.504;2023-12-22T01:55:34;4.10;;;1.02;;
5414;SDS011;2730;51.512;7.504;2023-12-22T01:58:02;4.93;;;1.20;;
5414;SDS011;2730;51.512;7.504;2023-12-22T02:00:31;4.68;;;1.45;;
5414;SDS011;2730;51.512;7.504;2023-12-22T02:02:58;2.83;;;1.17;;
5414;SDS011;2730;51.512;7.504;2023-12-22T02:05:26;14.63;;;1.10;;
5414;SDS011;2730;51.512;7.504;2023-12-22T02:07:54;3.05;;;2.35;;
5414;SDS011;2730;51.512;7.504;2023-12-22T02:10:21;18.40;;;1.50;;
5414;SDS011;2730;51.512;7.504;2023-12-22T02:12:50;1.48;;;0.70;;
5414;SDS011;2730;51.512;7.504;2023-12-22T02:15:18;4.20;;;1.20;;
5414;SDS011;2730;51.512;7.504;2023-12-22T02:17:48;3.70;;;1.55;;
5414;SDS011;2730;51.512;7.504;2023-12-22T02:20:19;1.73;;;1.10;;
5414;SDS011;2730;51.512;7.504;2023-12-22T02:22:52;5.88;;;1.05;;
5414;SDS011;2730;51.512;7.504;2023-12-22T02:25:21;4.15;;;1.52;;
5414;SDS011;2730;51.512;7.504;2023-12-22T02:27:48;4.95;;;0.90;;
5414;SDS011;2730;51.512;7.504;2023-12-22T02:30:18;1.92;;;1.05;;
5414;SDS011;2730;51.512;7.504;2023-12-22T02:32:58;6.38;;;0.98;;
5414;SDS011;2730;51.512;7.504;2023-12-22T02:35:29;7.93;;;0.90;;
5414;SDS011;2730;51.512;7.504;2023-12-22T02:38:00;2.83;;;0.70;;
5414;SDS011;2730;51.512;7.504;2023-12-22T02:40:29;0.60;;;0.60;;
5414;SDS011;2730;51.512;7.504;2023-12-22T02:42:57;2.33;;;1.05;;
5414;SDS011;2730;51.512;7.504;2023-12-22T02:45:24;6.38;;;0.90;;
5414;SDS011;2730;51.512;7.504;2023-12-22T02:47:51;4.60;;;1.00;;
5414;SDS011;2730;51.512;7.504;2023-12-22T02:50:17;3.45;;;0.80;;
5414;SDS011;2730;51.512;7.504;2023-12-22T02:52:44;2.55;;;0.90;;
5414;SDS011;2730;51.512;7.504;2023-12-22T02:55:13;0.98;;;0.60;;
5414;SDS011;2730;51.512;7.504;2023-12-22T02:57:40;0.88;;;0.70;;
5414;SDS011;2730;51.512;7.504;2023-12-22T03:00:07;5.88;;;1.05;;
5414;SDS011;2730;51.512;7.504;2023-12-22T03:02:35;1.67;;;0.75;;
5414;SDS011;2730;51.512;7.504;2023-12-22T03:05:02;0.70;;;0.70;;
5414;SDS011;2730;51.512;7.504;2023-12-22T03:07:29;3.10;;;1.00;;
5414;SDS011;2730;51.512;7.504;2023-12-22T03:09:56;5.80;;;1.20;;
5414;SDS011;2730;51.512;7.504;2023-12-22T03:12:24;1.45;;;0.75;;
5414;SDS011;2730;51.512;7.504;2023-12-22T03:14:51;1.90;;;0.77;;
5414;SDS011;2730;51.512;7.504;2023-12-22T03:17:19;2.83;;;0.70;;
5414;SDS011;2730;51.512;7.504;2023-12-22T03:19:47;2.33;;;1.20;;
5414;SDS011;2730;51.512;7.504;2023-12-22T03:22:14;1.52;;;1.38;;
5414;SDS011;2730;51.512;7.504;2023-12-22T03:24:41;2.17;;;1.10;;
5414;SDS011;2730;51.512;7.504;2023-12-22T03:27:08;9.38;;;1.20;;
5414;SDS011;2730;51.512;7.504;2023-12-22T03:29:36;1.92;;;1.27;;
5414;SDS011;2730;51.512;7.504;2023-12-22T03:32:03;8.57;;;0.90;;
5414;SDS011;2730;51.512;7.504;2023-12-22T03:34:31;1.50;;;1.10;;
5414;SDS011;2730;51.512;7.504;2023-12-22T03:36:58;4.82;;;0.80;;
5414;SDS011;2730;51.512;7.504;2023-12-22T03:39:25;2.38;;;0.80;;
5414;SDS011;2730;51.512;7.504;2023-12-22T03:41:51;10.95;;;1.10;;
5414;SDS011;2730;51.512;7.504;2023-12-22T03:44:19;1.67;;;0.98;;
5414;SDS011;2730;51.512;7.504;2023-12-22T03:46:47;1.88;;;0.80;;
5414;SDS011;2730;51.512;7.504;2023-12-22T03:49:22;1.02;;;0.73;;
5414;SDS011;2730;51.512;7.504;2023-12-22T03:51:49;0.77;;;0.75;;
5414;SDS011;2730;51.512;7.504;2023-12-22T03:54:16;6.10;;;0.70;;
5414;SDS011;2730;51.512;7.504;2023-12-22T03:56:47;1.25;;;0.80;;
5414;SDS011;2730;51.512;7.504;2023-12-22T03:59:16;2.40;;;1.00;;
5414;SDS011;2730;51.512;7.504;2023-12-22T04:01:44;1.13;;;0.70;;
5414;SDS011;2730;51.512;7.504;2023-12-22T04:04:19;9.32;;;1.90;;
5414;SDS011;2730;51.512;7.504;2023-12-22T04:06:47;4.63;;;0.70;;
5414;SDS011;2730;51.512;7.504;2023-12-22T04:09:14;3.03;;;0.80;;
5414;SDS011;2730;51.512;7.504;2023-12-22T04:11:41;10.20;;;1.23;;
5414;SDS011;2730;51.512;7.504;2023-12-22T04:14:07;4.82;;;1.13;;
5414;SDS011;2730;51.512;7.504;2023-12-22T04:16:36;6.63;;;0.80;;
5414;SDS011;2730;51.512;7.504;2023-12-22T04:19:03;2.95;;;1.40;;
5414;SDS011;2730;51.512;7.504;2023-12-22T04:21:33;3.22;;;1.10;;
5414;SDS011;2730;51.512;7.504;2023-12-22T04:24:00;1.77;;;0.95;;
5414;SDS011;2730;51.512;7.504;2023-12-22T04:26:26;2.05;;;0.80;;
5414;SDS011;2730;51.512;7.504;2023-12-22T04:28:53;0.82;;;0.82;;
5414;SDS011;2730;51.512;7.504;2023-12-22T04:31:20;0.80;;;0.70;;
5414;SDS011;2730;51.512;7.504;2023-12-22T04:33:47;1.13;;;0.60;;
5414;SDS011;2730;51.512;7.504;2023-12-22T04:36:14;2.58;;;0.70;;
5414;SDS011;2730;51.512;7.504;2023-12-22T04:38:43;8.57;;;1.10;;
5414;SDS011;2730;51.512;7.504;2023-12-22T04:41:10;6.63;;;2.47;;
5414;SDS011;2730;51.512;7.504;2023-12-22T04:43:38;2.55;;;0.77;;
5414;SDS011;2730;51.512;7.504;2023-12-22T04:46:06;1.88;;;0.80;;
5414;SDS011;2730;51.512;7.504;2023-12-22T04:48:33;1.10;;;0.68;;
5414;SDS011;2730;51.512;7.504;2023-12-22T04:51:00;4.75;;;1.23;;
5414;SDS011;2730;51.512;7.504;2023-12-22T04:53:27;4.90;;;2.75;;
5414;SDS011;2730;51.512;7.504;2023-12-22T04:55:55;4.55;;;0.80;;
5414;SDS011;2730;51.512;7.504;2023-12-22T04:58:22;1.15;;;0.90;;
5414;SDS011;2730;51.512;7.504;2023-12-22T05:00:49;6.53;;;1.45;;
5414;SDS011;2730;51.512;7.504;2023-12-22T05:03:16;0.95;;;0.70;;
5414;SDS011;2730;51.512;7.504;2023-12-22T05:05:43;4.85;;;0.88;;
5414;SDS011;2730;51.512;7.504;2023-12-22T05:08:10;3.45;;;0.70;;
5414;SDS011;2730;51.512;7.504;2023-12-22T05:10:37;1.88;;;0.70;;
5414;SDS011;2730;51.512;7.504;2023-12-22T05:13:13;0.60;;;0.60;;
5414;SDS011;2730;51.512;7.504;2023-12-22T05:15:45;2.83;;;0.70;;
5414;SDS011;2730;51.512;7.504;2023-12-22T05:18:11;2.08;;;0.85;;
5414;SDS011;2730;51.512;7.504;2023-12-22T05:20:38;2.65;;;0.80;;
5414;SDS011;2730;51.512;7.504;2023-12-22T05:23:05;2.70;;;0.90;;
5414;SDS011;2730;51.512;7.504;2023-12-22T05:25:32;4.90;;;0.95;;
5414;SDS011;2730;51.512;7.504;2023-12-22T05:27:59;9.27;;;0.90;;
5414;SDS011;2730;51.512;7.504;2023-12-22T05:30:27;3.70;;;0.82;;
5414;SDS011;2730;51.512;7.504;2023-12-22T05:32:54;1.02;;;1.00;;
5414;SDS011;2730;51.512;7.504;2023-12-22T05:35:22;1.25;;;0.85;;
5414;SDS011;2730;51.512;7.504;2023-12-22T05:37:49;12.88;;;1.20;;
5414;SDS011;2730;51.512;7.504;2023-12-22T05:40:16;5.80;;;1.25;;
5414;SDS011;2730;51.512;7.504;2023-12-22T05:42:42;1.27;;;1.17;;
5414;SDS011;2730;51.512;7.504;2023-12-22T05:45:09;3.58;;;0.93;;
5414;SDS011;2730;51.512;7.504;2023-12-22T05:47:37;6.85;;;1.17;;
5414;SDS011;2730;51.512;7.504;2023-12-22T05:50:05;3.42;;;1.08;;
5414;SDS011;2730;51.512;7.504;2023-12-22T05:52:33;2.72;;;1.20;;
5414;SDS011;2730;51.512;7.504;2023-12-22T05:55:00;3.38;;;1.05;;
5414;SDS011;2730;51.512;7.504;2023-12-22T05:57:27;7.80;;;1.88;;
5414;SDS011;2730;51.512;7.504;2023-12-22T05:59:53;0.80;;;0.80;;
5414;SDS011;2730;51.512;7.504;2023-12-22T06:02:22;1.35;;;0.88;;
5414;SDS011;2730;51.512;7.504;2023-12-22T06:04:50;1.83;;;0.90;;
5414;SDS011;2730;51.512;7.504;2023-12-22T06:07:16;8.88;;;1.20;;
5414;SDS011;2730;51.512;7.504;2023-12-22T06:09:44;3.60;;;0.65;;
5414;SDS011;2730;51.512;7.504;2023-12-22T06:12:11;2.50;;;0.98;;
5414;SDS011;2730;51.512;7.504;2023-12-22T06:14:38;2.72;;;1.05;;
5414;SDS011;2730;51.512;7.504;2023-12-22T06:17:05;2.58;;;0.95;;
5414;SDS011;2730;51.512;7.504;2023-12-22T06:19:32;9.13;;;1.10;;
5414;SDS011;2730;51.512;7.504;2023-12-22T06:22:03;3.25;;;1.20;;
5414;SDS011;2730;51.512;7.504;2023-12-22T06:24:34;7.05;;;1.50;;
5414;SDS011;2730;51.512;7.504;2023-12-22T06:27:01;9.88;;;1.15;;
5414;SDS011;2730;51.512;7.504;2023-12-22T06:29:28;3.35;;;1.27;;
5414;SDS011;2730;51.512;7.504;2023-12-22T06:31:55;4.70;;;1.60;;
5414;SDS011;2730;51.512;7.504;2023-12-22T06:34:22;3.78;;;1.50;;
5414;SDS011;2730;51.512;7.504;2023-12-22T06:36:50;8.30;;;1.17;;
5414;SDS011;2730;51.512;7.504;2023-12-22T06:39:19;11.15;;;1.30;;
5414;SDS011;2730;51.512;7.504;2023-12-22T06:41:46;5.28;;;1.58;;
5414;SDS011;2730;51.512;7.504;2023-12-22T06:44:13;12.75;;;1.35;;
5414;SDS011;2730;51.512;7.504;2023-12-22T06:46:40;11.82;;;1.20;;
5414;SDS011;2730;51.512;7.504;2023-12-22T06:49:09;8.15;;;1.35;;
5414;SDS011;2730;51.512;7.504;2023-12-22T06:51:38;1.33;;;1.13;;
5414;SDS011;2730;51.512;7.504;2023-12-22T06:54:05;3.17;;;1.10;;
5414;SDS011;2730;51.512;7.504;2023-12-22T06:56:33;8.95;;;1.30;;
5414;SDS011;2730;51.512;7.504;2023-12-22T06:59:01;7.35;;;1.60;;
5414;SDS011;2730;51.512;7.504;2023-12-22T07:01:30;2.95;;;1.48;;
5414;SDS011;2730;51.512;7.504;2023-12-22T07:03:58;2.65;;;1.10;;
5414;SDS011;2730;51.512;7.504;2023-12-22T07:06:26;9.05;;;1.55;;
5414;SDS011;2730;51.512;7.504;2023-12-22T07:11:59;6.55;;;1.45;;
5414;SDS011;2730;51.512;7.504;2023-12-22T07:14:26;3.40;;;1.80;;
5414;SDS011;2730;51.512;7.504;2023-12-22T07:16:55;3.45;;;1.23;;
5414;SDS011;2730;51.512;7.504;2023-12-22T07:19:24;3.70;;;0.98;;
5414;SDS011;2730;51.512;7.504;2023-12-22T07:21:51;7.03;;;1.40;;
5414;SDS011;2730;51.512;7.504;2023-12-22T07:24:19;2.30;;;1.15;;
5414;SDS011;2730;51.512;7.504;2023-12-22T07:26:46;12.85;;;1.45;;
5414;SDS011;2730;51.512;7.504;2023-12-22T07:29:14;3.63;;;1.20;;
5414;SDS011;2730;51.512;7.504;2023-12-22T07:31:41;6.20;;;1.48;;
5414;SDS011;2730;51.512;7.504;2023-12-22T07:34:09;7.45;;;1.30;;
5414;SDS011;2730;51.512;7.504;2023-12-22T07:36:36;24.00;;;2.85;;
5414;SDS011;2730;51.512;7.504;2023-12-22T07:39:03;5.53;;;1.75;;
5414;SDS011;2730;51.512;7.504;2023-12-22T07:41:31;6.57;;;1.70;;
5414;SDS011;2730;51.512;7.504;2023-12-22T07:43:57;1.63;;;1.23;;
5414;SDS011;2730;51.512;7.504;2023-12-22T07:46:28;4.50;;;1.42;;
5414;SDS011;2730;51.512;7.504;2023-12-22T07:48:55;6.57;;;1.40;;
5414;SDS011;2730;51.512;7.504;2023-12-22T07:51:22;14.60;;;2.70;;
5414;SDS011;2730;51.512;7.504;2023-12-22T07:53:49;4.15;;;1.80;;
5414;SDS011;2730;51.512;7.504;2023-12-22T07:56:16;5.40;;;1.65;;
5414;SDS011;2730;51.512;7.504;2023-12-22T07:58:43;8.00;;;1.40;;
5414;SDS011;2730;51.512;7.504;2023-12-22T08:01:11;5.43;;;1.63;;
5414;SDS011;2730;51.512;7.504;2023-12-22T08:03:41;10.68;;;1.48;;
5414;SDS011;2730;51.512;7.504;2023-12-22T08:06:08;5.57;;;1.42;;
5414;SDS011;2730;51.512;7.504;2023-12-22T08:08:35;13.73;;;2.67;;
5414;SDS011;2730;51.512;7.504;2023-12-22T08:11:02;3.05;;;1.25;;
5414;SDS011;2730;51.512;7.504;2023-12-22T08:13:30;2.65;;;1.55;;
5414;SDS011;2730;51.512;7.504;2023-12-22T08:15:57;10.70;;;1.83;;
5414;SDS011;2730;51.512;7.504;2023-12-22T08:18:24;3.58;;;1.30;;
5414;SDS011;2730;51.512;7.504;2023-12-22T08:20:55;4.05;;;1.55;;
5414;SDS011;2730;51.512;7.504;2023-12-22T08:23:23;7.18;;;1.95;;
5414;SDS011;2730;51.512;7.504;2023-12-22T08:25:51;7.13;;;1.42;;
5414;SDS011;2730;51.512;7.504;2023-12-22T08:28:18;7.72;;;2.00;;
5414;SDS011;2730;51.512;7.504;2023-12-22T08:30:45;11.30;;;2.60;;
5414;SDS011;2730;51.512;7.504;2023-12-22T08:33:12;12.52;;;1.95;;
5414;SDS011;2730;51.512;7.504;2023-12-22T08:35:41;2.70;;;1.38;;
5414;SDS011;2730;51.512;7.504;2023-12-22T08:38:12;5.00;;;1.63;;
5414;SDS011;2730;51.512;7.504;2023-12-22T08:40:40;13.48;;;1.75;;
5414;SDS011;2730;51.512;7.504;2023-12-22T08:43:07;9.65;;;1.60;;
5414;SDS011;2730;51.512;7.504;2023-12-22T08:45:35;7.55;;;1.75;;
5414;SDS011;2730;51.512;7.504;2023-12-22T08:48:02;9.27;;;2.50;;
5414;SDS011;2730;51.512;7.504;2023-12-22T08:50:32;5.97;;;2.50;;
5414;SDS011;2730;51.512;7.504;2023-12-22T08:53:00;8.73;;;2.90;;
5414;SDS011;2730;51.512;7.504;2023-12-22T08:55:30;19.35;;;2.40;;
5414;SDS011;2730;51.512;7.504;2023-12-22T08:57:57;12.38;;;5.05;;
5414;SDS011;2730;51.512;7.504;2023-12-22T09:00:24;17.17;;;2.30;;
5414;SDS011;2730;51.512;7.504;2023-12-22T09:02:54;4.72;;;2.22;;
5414;SDS011;2730;51.512;7.504;2023-12-22T09:05:21;5.85;;;2.17;;
5414;SDS011;2730;51.512;7.504;2023-12-22T09:07:47;6.60;;;2.08;;
5414;SDS011;2730;51.512;7.504;2023-12-22T09:10:14;11.55;;;2.45;;
5414;SDS011;2730;51.512;7.504;2023-12-22T09:12:43;9.40;;;3.25;;
5414;SDS011;2730;51.512;7.504;2023-12-22T09:15:12;13.77;;;4.45;;
5414;SDS011;2730;51.512;7.504;2023-12-22T09:17:39;11.85;;;2.80;;
5414;SDS011;2730;51.512;7.504;2023-12-22T09:20:07;22.98;;;4.25;;
5414;SDS011;2730;51.512;7.504;2023-12-22T09:22:37;12.35;;;2.60;;
5414;SDS011;2730;51.512;7.504;2023-12-22T09:25:04;6.75;;;2.80;;
5414;SDS011;2730;51.512;7.504;2023-12-22T09:27:33;14.35;;;2.90;;
5414;SDS011;2730;51.512;7.504;2023-12-22T09:30:03;11.60;;;3.00;;
5414;SDS011;2730;51.512;7.504;2023-12-22T09:32:32;14.20;;;4.20;;
5414;SDS011;2730;51.512;7.504;2023-12-22T09:34:59;15.45;;;2.83;;
5414;SDS011;2730;51.512;7.504;2023-12-22T09:37:27;9.27;;;2.20;;
5414;SDS011;2730;51.512;7.504;2023-12-22T09:39:53;8.48;;;2.88;;
5414;SDS011;2730;51.512;7.504;2023-12-22T09:42:20;20.42;;;3.35;;
5414;SDS011;2730;51.512;7.504;2023-12-22T09:44:48;13.38;;;2.80;;
5414;SDS011;2730;51.512;7.504;2023-12-22T09:47:18;15.85;;;2.95;;
5414;SDS011;2730;51.512;7.504;2023-12-22T09:49:45;11.48;;;2.55;;
5414;SDS011;2730;51.512;7.504;2023-12-22T09:52:13;11.70;;;3.33;;
5414;SDS011;2730;51.512;7.504;2023-12-22T09:54:42;2.58;;;2.35;;
5414;SDS011;2730;51.512;7.504;2023-12-22T09:57:11;3.38;;;2.03;;
5414;SDS011;2730;51.512;7.504;2023-12-22T09:59:39;11.18;;;1.75;;
5414;SDS011;2730;51.512;7.504;2023-12-22T10:02:05;7.25;;;2.10;;
5414;SDS011;2730;51.512;7.504;2023-12-22T10:04:35;8.32;;;2.08;;
5414;SDS011;2730;51.512;7.504;2023-12-22T10:07:02;6.25;;;2.13;;
5414;SDS011;2730;51.512;7.504;2023-12-22T10:09:31;2.85;;;1.90;;
5414;SDS011;2730;51.512;7.504;2023-12-22T10:11:58;6.78;;;3.88;;
5414;SDS011;2730;51.512;7.504;2023-12-22T10:14:26;11.57;;;1.73;;
5414;SDS011;2730;51.512;7.504;2023-12-22T10:16:56;8.05;;;2.55;;
5414;SDS011;2730;51.512;7.504;2023-12-22T10:19:25;6.07;;;1.75;;
5414;SDS011;2730;51.512;7.504;2023-12-22T10:21:53;8.68;;;1.65;;
5414;SDS011;2730;51.512;7.504;2023-12-22T10:24:39;13.65;;;2.70;;
5414;SDS011;2730;51.512;7.504;2023-12-22T10:27:08;11.02;;;1.77;;
5414;SDS011;2730;51.512;7.504;2023-12-22T10:29:35;15.73;;;2.47;;
5414;SDS011;2730;51.512;7.504;2023-12-22T10:32:02;11.32;;;2.30;;
5414;SDS011;2730;51.512;7.504;2023-12-22T10:34:30;7.28;;;1.75;;
5414;SDS011;2730;51.512;7.504;2023-12-22T10:36:59;1.70;;;1.10;;
5414;SDS011;2730;51.512;7.504;2023-12-22T10:39:28;3.22;;;1.85;;
5414;SDS011;2730;51.512;7.504;2023-12-22T10:41:55;9.57;;;1.73;;
5414;SDS011;2730;51.512;7.504;2023-12-22T10:44:23;4.78;;;1.50;;
5414;SDS011;2730;51.512;7.504;2023-12-22T10:46:50;5.38;;;1.77;;
5414;SDS011;2730;51.512;7.504;2023-12-22T10:49:20;9.95;;;1.83;;
5414;SDS011;2730;51.512;7.504;2023-12-22T10:51:47;4.50;;;2.13;;
5414;SDS011;2730;51.512;7.504;2023-12-22T10:54:15;3.53;;;2.00;;
5414;SDS011;2730;51.512;7.504;2023-12-22T10:56:42;9.13;;;1.98;;
5414;SDS011;2730;51.512;7.504;2023-12-22T10:59:08;6.90;;;2.63;;
5414;SDS011;2730;51.512;7.504;2023-12-22T11:01:35;7.95;;;2.85;;
5414;SDS011;2730;51.512;7.504;2023-12-22T11:04:05;7.93;;;2.65;;
5414;SDS011;2730;51.512;7.504;2023-12-22T11:06:35;5.90;;;2.47;;
5414;SDS011;2730;51.512;7.504;2023-12-22T11:09:06;3.72;;;1.90;;
5414;SDS011;2730;51.512;7.504;2023-12-22T11:11:38;3.53;;;2.10;;
5414;SDS011;2730;51.512;7.504;2023-12-22T11:14:06;6.60;;;2.15;;
5414;SDS011;2730;51.512;7.504;2023-12-22T11:16:35;5.65;;;2.30;;
5414;SDS011;2730;51.512;7.504;2023-12-22T11:19:02;9.30;;;1.50;;
5414;SDS011;2730;51.512;7.504;2023-12-22T11:21:31;9.32;;;1.85;;
5414;SDS011;2730;51.512;7.504;2023-12-22T11:23:58;13.20;;;1.83;;
5414;SDS011;2730;51.512;7.504;2023-12-22T11:26:26;4.82;;;2.15;;
5414;SDS011;2730;51.512;7.504;2023-12-22T11:28:55;3.05;;;1.77;;
5414;SDS011;2730;51.512;7.504;2023-12-22T11:31:24;10.52;;;2.38;;
5414;SDS011;2730;51.512;7.504;2023-12-22T11:33:54;3.55;;;1.92;;
5414;SDS011;2730;51.512;7.504;2023-12-22T11:36:21;5.88;;;2.25;;
5414;SDS011;2730;51.512;7.504;2023-12-22T11:38:49;4.68;;;1.38;;
5414;SDS011;2730;51.512;7.504;2023-12-22T11:41:17;4.15;;;1.40;;
5414;SDS011;2730;51.512;7.504;2023-12-22T11:43:47;1.90;;;1.10;;
5414;SDS011;2730;51.512;7.504;2023-12-22T11:46:17;7.57;;;1.27;;
5414;SDS011;2730;51.512;7.504;2023-12-22T11:48:46;15.10;;;1.23;;
5414;SDS011;2730;51.512;7.504;2023-12-22T11:51:14;1.35;;;1.10;;
5414;SDS011;2730;51.512;7.504;2023-12-22T11:53:41;3.08;;;1.00;;
5414;SDS011;2730;51.512;7.504;2023-12-22T11:56:09;1.05;;;0.85;;
5414;SDS011;2730;51.512;7.504;2023-12-22T11:58:36;2.97;;;0.90;;
5414;SDS011;2730;51.512;7.504;2023-12-22T12:01:08;1.25;;;1.08;;
5414;SDS011;2730;51.512;7.504;2023-12-22T12:03:40;0.70;;;0.70;;
5414;SDS011;2730;51.512;7.504;2023-12-22T12:06:11;3.83;;;0.80;;
5414;SDS011;2730;51.512;7.504;2023-12-22T12:08:43;3.72;;;0.80;;
5414;SDS011;2730;51.512;7.504;2023-12-22T12:11:10;5.13;;;1.02;;
5414;SDS011;2730;51.512;7.504;2023-12-22T12:13:41;0.68;;;0.68;;
5414;SDS011;2730;51.512;7.504;2023-12-22T12:16:10;3.45;;;1.10;;
5414;SDS011;2730;51.512;7.504;2023-12-22T12:18:40;3.03;;;1.52;;
5414;SDS011;2730;51.512;7.504;2023-12-22T12:21:08;1.23;;;0.80;;
5414;SDS011;2730;51.512;7.504;2023-12-22T12:23:37;4.93;;;1.40;;
5414;SDS011;2730;51.512;7.504;2023-12-22T12:26:07;6.00;;;1.20;;
5414;SDS011;2730;51.512;7.504;2023-12-22T12:28:37;1.92;;;1.48;;
5414;SDS011;2730;51.512;7.504;2023-12-22T12:31:10;2.90;;;2.65;;
5414;SDS011;2730;51.512;7.504;2023-12-22T12:33:37;1.70;;;1.20;;
5414;SDS011;2730;51.512;7.504;2023-12-22T12:36:06;11.52;;;1.30;;
5414;SDS011;2730;51.512;7.504;2023-12-22T12:38:38;10.93;;;1.02;;
5414;SDS011;2730;51.512;7.504;2023-12-22T12:41:09;7.10;;;1.20;;
5414;SDS011;2730;51.512;7.504;2023-12-22T12:43:41;5.35;;;1.35;;
5414;SDS011;2730;51.512;7.504;2023-12-22T12:46:09;1.35;;;1.25;;
5414;SDS011;2730;51.512;7.504;2023-12-22T12:48:37;10.13;;;2.13;;
5414;SDS011;2730;51.512;7.504;2023-12-22T12:51:06;1.20;;;1.15;;
5414;SDS011;2730;51.512;7.504;2023-12-22T12:53:34;1.60;;;1.30;;
5414;SDS011;2730;51.512;7.504;2023-12-22T12:56:04;2.47;;;1.10;;
5414;SDS011;2730;51.512;7.504;2023-12-22T12:58:33;1.95;;;1.20;;
5414;SDS011;2730;51.512;7.504;2023-12-22T13:01:04;1.42;;;1.10;;
5414;SDS011;2730;51.512;7.504;2023-12-22T13:03:32;5.88;;;1.25;;
5414;SDS011;2730;51.512;7.504;2023-12-22T13:06:09;0.80;;;0.80;;
5414;SDS011;2730;51.512;7.504;2023-12-22T13:08:35;1.90;;;1.40;;
5414;SDS011;2730;51.512;7.504;2023-12-22T13:11:05;1.10;;;0.95;;
5414;SDS011;2730;51.512;7.504;2023-12-22T13:13:40;2.03;;;1.20;;
5414;SDS011;2730;51.512;7.504;2023-12-22T13:16:08;1.52;;;0.90;;
5414;SDS011;2730;51.512;7.504;2023-12-22T13:18:35;0.90;;;0.90;;
5414;SDS011;2730;51.512;7.504;2023-12-22T13:21:03;2.55;;;1.10;;
5414;SDS011;2730;51.512;7.504;2023-12-22T13:23:31;1.00;;;1.00;;
5414;SDS011;2730;51.512;7.504;2023-12-22T13:25:58;2.15;;;1.00;;
5414;SDS011;2730;51.512;7.504;2023-12-22T13:28:28;3.40;;;1.63;;
5414;SDS011;2730;51.512;7.504;2023-12-22T13:30:56;4.68;;;1.65;;
5414;SDS011;2730;51.512;7.504;2023-12-22T13:33:26;1.20;;;1.10;;
5414;SDS011;2730;51.512;7.504;2023-12-22T13:35:56;1.10;;;1.10;;
5414;SDS011;2730;51.512;7.504;2023-12-22T13:38:23;1.40;;;1.30;;
5414;SDS011;2730;51.512;7.504;2023-12-22T13:40:52;5.32;;;1.10;;
5414;SDS011;2730;51.512;7.504;2023-12-22T13:43:19;1.42;;;0.90;;
5414;SDS011;2730;51.512;7.504;2023-12-22T13:45:49;2.88;;;1.20;;
5414;SDS011;2730;51.512;7.504;2023-12-22T13:48:18;5.88;;;1.10;;
5414;SDS011;2730;51.512;7.504;2023-12-22T13:50:54;5.40;;;1.52;;
5414;SDS011;2730;51.512;7.504;2023-12-22T13:53:22;1.10;;;1.00;;
5414;SDS011;2730;51.512;7.504;2023-12-22T13:55:54;0.90;;;0.90;;
5414;SDS011;2730;51.512;7.504;2023-12-22T13:58:21;1.10;;;1.00;;
5414;SDS011;2730;51.512;7.504;2023-12-22T14:00:48;3.47;;;1.65;;
5414;SDS011;2730;51.512;7.504;2023-12-22T14:03:15;1.05;;;0.95;;
5414;SDS011;2730;51.512;7.504;2023-12-22T14:05:46;2.45;;;1.10;;
5414;SDS011;2730;51.512;7.504;2023-12-22T14:08:13;6.57;;;1.30;;
5414;SDS011;2730;51.512;7.504;2023-12-22T14:10:52;3.08;;;1.65;;
5414;SDS011;2730;51.512;7.504;2023-12-22T14:13:20;4.85;;;1.45;;
5414;SDS011;2730;51.512;7.504;2023-12-22T14:15:47;1.75;;;1.60;;
5414;SDS011;2730;51.512;7.504;2023-12-22T14:18:15;9.80;;;1.55;;
5414;SDS011;2730;51.512;7.504;2023-12-22T14:20:42;2.35;;;1.25;;
5414;SDS011;2730;51.512;7.504;2023-12-22T14:23:11;3.08;;;1.52;;
5414;SDS011;2730;51.512;7.504;2023-12-22T14:25:42;8.73;;;2.30;;
5414;SDS011;2730;51.512;7.504;2023-12-22T14:28:10;4.72;;;2.25;;
5414;SDS011;2730;51.512;7.504;2023-12-22T14:30:38;3.75;;;1.73;;
5414;SDS011;2730;51.512;7.504;2023-12-22T14:33:06;5.45;;;1.13;;
5414;SDS011;2730;51.512;7.504;2023-12-22T14:35:34;5.18;;;1.13;;
5414;SDS011;2730;51.512;7.504;2023-12-22T14:38:02;2.70;;;1.48;;
5414;SDS011;2730;51.512;7.504;2023-12-22T14:40:30;6.07;;;1.70;;
5414;SDS011;2730;51.512;7.504;2023-12-22T14:42:59;1.20;;;0.82;;
5414;SDS011;2730;51.512;7.504;2023-12-22T14:45:27;4.93;;;1.30;;
5414;SDS011;2730;51.512;7.504;2023-12-22T14:47:55;5.70;;;1.30;;
5414;SDS011;2730;51.512;7.504;2023-12-22T14:50:22;4.00;;;1.10;;
5414;SDS011;2730;51.512;7.504;2023-12-22T14:52:50;1.85;;;1.42;;
5414;SDS011;2730;51.512;7.504;2023-12-22T14:55:17;2.17;;;1.60;;
5414;SDS011;2730;51.512;7.504;2023-12-22T14:57:45;2.67;;;1.63;;
5414;SDS011;2730;51.512;7.504;2023-12-22T15:00:12;3.65;;;1.45;;
5414;SDS011;2730;51.512;7.504;2023-12-22T15:02:40;2.05;;;1.02;;
5414;SDS011;2730;51.512;7.504;2023-12-22T15:05:13;4.53;;;1.65;;
5414;SDS011;2730;51.512;7.504;2023-12-22T15:07:41;2.65;;;1.35;;
5414;SDS011;2730;51.512;7.504;2023-12-22T15:10:07;1.20;;;1.10;;
5414;SDS011;2730;51.512;7.504;2023-12-22T15:12:37;2.75;;;1.30;;
5414;SDS011;2730;51.512;7.504;2023-12-22T15:15:07;3.63;;;1.35;;
5414;SDS011;2730;51.512;7.504;2023-12-22T15:17:34;1.75;;;1.45;;
5414;SDS011;2730;51.512;7.504;2023-12-22T15:20:01;5.60;;;2.35;;
5414;SDS011;2730;51.512;7.504;2023-12-22T15:22:31;2.90;;;0.90;;